createdAt,value
2023-03-05T00:01:16.183Z,96015.28
2023-03-05T00:03:42.852Z,96009.25
2023-03-05T00:06:09.596Z,96012.63
2023-03-05T00:08:36.931Z,96010.97
2023-03-05T00:11:09.145Z,96010.84
2023-03-05T00:13:36.816Z,96005.72
2023-03-05T00:16:05.266Z,96007.50
2023-03-05T00:18:32.315Z,96001.38
2023-03-05T00:20:59.005Z,95991.97
2023-03-05T00:23:25.797Z,95999.56
2023-03-05T00:25:52.475Z,95996.19
2023-03-05T00:28:19.065Z,95994.44
2023-03-05T00:30:45.642Z,95994.34
2023-03-05T00:33:13.072Z,95990.13
2023-03-05T00:35:45.666Z,95982.44
2023-03-05T00:38:12.924Z,95986.66
2023-03-05T00:40:41.230Z,95979.84
2023-03-05T00:43:08.679Z,95978.22
2023-03-05T00:45:35.504Z,95980.72
2023-03-05T00:48:02.772Z,95970.50
2023-03-05T00:50:29.409Z,95973.84
2023-03-05T00:52:56.041Z,95973.84
2023-03-05T00:55:22.627Z,95973.91
2023-03-05T00:57:49.426Z,95970.56
2023-03-05T01:00:16.894Z,95964.47
2023-03-05T01:02:43.681Z,95962.78
2023-03-05T01:05:14.416Z,95962.72
2023-03-05T01:07:41.363Z,95952.38
2023-03-05T01:10:09.642Z,95944.69
2023-03-05T01:12:37.171Z,95954.16
2023-03-05T01:15:05.105Z,95953.38
2023-03-05T01:17:31.861Z,95958.56
2023-03-05T01:19:58.386Z,95955.28
2023-03-05T01:22:25.145Z,95963.88
2023-03-05T01:24:52.039Z,95946.72
2023-03-05T01:27:18.578Z,95955.31
2023-03-05T01:29:45.127Z,95953.63
2023-03-05T01:32:12.933Z,95951.88
2023-03-05T01:34:39.671Z,95945.03
2023-03-05T01:37:06.237Z,95939.91
2023-03-05T01:39:32.832Z,95937.34
2023-03-05T01:41:59.691Z,95941.63
2023-03-05T01:44:28.962Z,95940.75
2023-03-05T01:46:55.561Z,95942.47
2023-03-05T01:49:26.126Z,95936.47
2023-03-05T01:52:18.108Z,95935.59
2023-03-05T01:54:46.795Z,95933.06
2023-03-05T01:57:18.025Z,95924.38
2023-03-05T01:59:47.422Z,95917.59
2023-03-05T02:02:14.145Z,95907.31
2023-03-05T02:04:46.393Z,95915.94
2023-03-05T02:07:14.396Z,95904.78
2023-03-05T02:09:41.440Z,95905.63
2023-03-05T02:12:10.117Z,95901.34
2023-03-05T02:14:38.553Z,95900.50
2023-03-05T02:17:05.801Z,95900.50
2023-03-05T02:19:54.091Z,95897.91
2023-03-05T02:22:22.594Z,95894.50
2023-03-05T02:24:49.609Z,95884.16
2023-03-05T02:27:16.626Z,95886.75
2023-03-05T02:29:46.542Z,95881.56
2023-03-05T02:32:14.272Z,95882.47
2023-03-05T02:34:41.255Z,95882.41
2023-03-05T02:37:10.222Z,95876.41
2023-03-05T02:39:38.336Z,95868.69
2023-03-05T02:42:05.528Z,95883.28
2023-03-05T02:44:32.423Z,95882.47
2023-03-05T02:46:59.050Z,95874.78
2023-03-05T02:49:25.910Z,95870.44
2023-03-05T02:51:52.731Z,95867.00
2023-03-05T02:54:19.399Z,95867.88
2023-03-05T02:56:46.004Z,95866.13
2023-03-05T02:59:12.603Z,95855.88
2023-03-05T03:01:39.580Z,95855.81
2023-03-05T03:04:06.190Z,95849.84
2023-03-05T03:06:32.840Z,95847.28
2023-03-05T03:08:59.384Z,95845.59
2023-03-05T03:11:25.937Z,95838.78
2023-03-05T03:13:52.534Z,95846.47
2023-03-05T03:16:19.177Z,95842.22
2023-03-05T03:18:47.500Z,95832.81
2023-03-05T03:21:18.929Z,95836.25
2023-03-05T03:23:45.930Z,95842.19
2023-03-05T03:26:12.534Z,95843.06
2023-03-05T03:28:39.360Z,95842.22
2023-03-05T03:31:05.940Z,95836.25
2023-03-05T03:33:32.660Z,95833.69
2023-03-05T03:35:59.410Z,95843.94
2023-03-05T03:38:26.039Z,95826.78
2023-03-05T03:40:52.568Z,95831.97
2023-03-05T03:43:19.132Z,95823.41
2023-03-05T03:45:45.982Z,95823.41
2023-03-05T03:48:12.592Z,95829.38
2023-03-05T03:50:43.178Z,95821.69
2023-03-05T03:53:14.160Z,95825.09
2023-03-05T03:55:46.416Z,95819.09
2023-03-05T03:58:13.223Z,95805.41
2023-03-05T04:00:40.820Z,95813.13
2023-03-05T04:03:07.887Z,95808.00
2023-03-05T04:05:34.446Z,95809.69
2023-03-05T04:08:01.427Z,95811.34
2023-03-05T04:10:28.004Z,95799.41
2023-03-05T04:12:54.642Z,95800.28
2023-03-05T04:15:21.233Z,95804.56
2023-03-05T04:17:47.907Z,95801.16
2023-03-05T04:20:14.488Z,95804.56
2023-03-05T04:22:41.086Z,95805.41
2023-03-05T04:25:08.363Z,95799.44
2023-03-05T04:27:34.919Z,95797.75
2023-03-05T04:30:01.571Z,95803.72
2023-03-05T04:32:29.796Z,95793.47
2023-03-05T04:34:57.488Z,95799.44
2023-03-05T04:37:25.697Z,95802.00
2023-03-05T04:39:53.165Z,95796.88
2023-03-05T04:42:21.091Z,95789.13
2023-03-05T04:44:49.274Z,95795.94
2023-03-05T04:47:16.859Z,95789.16
2023-03-05T04:49:44.185Z,95792.56
2023-03-05T04:52:12.548Z,95790.00
2023-03-05T04:54:39.250Z,95775.44
2023-03-05T04:57:06.389Z,95782.34
2023-03-05T04:59:33.041Z,95779.75
2023-03-05T05:01:59.670Z,95778.91
2023-03-05T05:04:26.286Z,95784.88
2023-03-05T05:06:56.080Z,95777.16
2023-03-05T05:09:24.767Z,95772.03
2023-03-05T05:11:51.427Z,95774.63
2023-03-05T05:14:18.755Z,95772.03
2023-03-05T05:16:45.574Z,95768.63
2023-03-05T05:19:12.270Z,95764.34
2023-03-05T05:21:38.891Z,95769.47
2023-03-05T05:24:05.754Z,95772.06
2023-03-05T05:26:32.348Z,95767.78
2023-03-05T05:28:58.927Z,95766.03
2023-03-05T05:31:25.732Z,95771.19
2023-03-05T05:33:52.380Z,95768.63
2023-03-05T05:36:19.447Z,95773.78
2023-03-05T05:38:46.120Z,95770.31
2023-03-05T05:41:15.904Z,95769.47
2023-03-05T05:43:42.792Z,95769.47
2023-03-05T05:46:13.822Z,95767.78
2023-03-05T05:48:40.533Z,95763.47
2023-03-05T05:51:12.319Z,95766.06
2023-03-05T05:53:39.461Z,95758.34
2023-03-05T05:56:08.049Z,95768.63
2023-03-05T05:58:35.955Z,95767.75
2023-03-05T06:01:02.815Z,95764.34
2023-03-05T06:03:29.429Z,95768.63
2023-03-05T06:05:56.820Z,95765.19
2023-03-05T06:08:23.609Z,95766.06
2023-03-05T06:10:56.149Z,95773.75
2023-03-05T06:13:22.772Z,95766.94
2023-03-05T06:15:57.987Z,95761.78
2023-03-05T06:18:24.669Z,95763.50
2023-03-05T06:20:56.382Z,95767.75
2023-03-05T06:23:23.684Z,95763.47
2023-03-05T06:25:50.430Z,95760.94
2023-03-05T06:28:17.111Z,95764.34
2023-03-05T06:30:43.804Z,95766.03
2023-03-05T06:33:10.856Z,95765.22
2023-03-05T06:35:39.985Z,95770.34
2023-03-05T06:38:07.888Z,95760.03
2023-03-05T06:40:35.272Z,95749.81
2023-03-05T06:43:01.845Z,95753.22
2023-03-05T06:45:28.565Z,95764.34
2023-03-05T06:47:55.191Z,95766.94
2023-03-05T06:50:21.802Z,95766.03
2023-03-05T06:52:51.401Z,95763.50
2023-03-05T06:55:19.013Z,95753.19
2023-03-05T06:57:45.660Z,95757.47
2023-03-05T07:00:12.880Z,95753.22
2023-03-05T07:02:39.645Z,95760.06
2023-03-05T07:05:07.789Z,95754.94
2023-03-05T07:07:34.945Z,95747.22
2023-03-05T07:10:01.771Z,95752.34
2023-03-05T07:12:28.426Z,95743.78
2023-03-05T07:14:54.974Z,95740.38
2023-03-05T07:17:21.568Z,95746.38
2023-03-05T07:19:48.143Z,95743.78
2023-03-05T07:22:14.775Z,95749.78
2023-03-05T07:24:41.338Z,95747.22
2023-03-05T07:27:07.891Z,95742.94
2023-03-05T07:29:34.445Z,95744.66
2023-03-05T07:32:01.022Z,95737.81
2023-03-05T07:34:27.679Z,95747.22
2023-03-05T07:36:56.520Z,95749.78
2023-03-05T07:39:23.242Z,95742.94
2023-03-05T07:41:51.463Z,95739.53
2023-03-05T07:44:26.142Z,95742.94
2023-03-05T07:46:52.717Z,95736.06
2023-03-05T07:49:19.300Z,95736.06
2023-03-05T07:51:45.872Z,95740.38
2023-03-05T07:54:12.514Z,95737.81
2023-03-05T07:56:39.124Z,95736.06
2023-03-05T07:59:10.548Z,95744.66
2023-03-05T08:01:37.490Z,95741.25
2023-03-05T08:04:05.813Z,95736.97
2023-03-05T08:06:32.393Z,95734.34
2023-03-05T08:08:59.715Z,95732.66
2023-03-05T08:11:28.489Z,95730.97
2023-03-05T08:13:55.142Z,95732.69
2023-03-05T08:16:22.326Z,95729.22
2023-03-05T08:18:49.194Z,95727.50
2023-03-05T08:21:18.740Z,95727.50
2023-03-05T08:23:45.678Z,95730.91
2023-03-05T08:26:14.684Z,95724.06
2023-03-05T08:28:41.236Z,95718.06
2023-03-05T08:31:14.294Z,95730.06
2023-03-05T08:33:41.726Z,95730.03
2023-03-05T08:36:09.562Z,95724.84
2023-03-05T08:38:36.751Z,95719.75
2023-03-05T08:41:03.706Z,95721.47
2023-03-05T08:43:31.200Z,95724.03
2023-03-05T08:46:00.417Z,95723.22
2023-03-05T08:48:28.162Z,95716.28
2023-03-05T08:50:56.310Z,95720.56
2023-03-05T08:53:23.236Z,95713.72
2023-03-05T08:55:59.752Z,95721.50
2023-03-05T08:58:26.704Z,95716.25
2023-03-05T09:00:53.280Z,95711.97
2023-03-05T09:03:19.942Z,95705.94
2023-03-05T09:05:47.064Z,95702.53
2023-03-05T09:08:14.419Z,95705.13
2023-03-05T09:10:42.856Z,95698.28
2023-03-05T09:13:09.961Z,95699.13
2023-03-05T09:15:37.151Z,95699.09
2023-03-05T09:18:03.874Z,95692.19
2023-03-05T09:20:30.436Z,95692.97
2023-03-05T09:22:57.179Z,95695.56
2023-03-05T09:25:23.796Z,95694.66
2023-03-05T09:27:50.397Z,95692.84
2023-03-05T09:30:17.293Z,95689.59
2023-03-05T09:32:43.953Z,95683.41
2023-03-05T09:35:11.053Z,95680.94
2023-03-05T09:37:37.640Z,95680.03
2023-03-05T09:40:04.639Z,95678.31
2023-03-05T09:42:43.372Z,95680.72
2023-03-05T09:45:19.889Z,95674.59
2023-03-05T09:48:06.598Z,95677.28
2023-03-05T09:50:41.343Z,95679.84
2023-03-05T09:53:28.079Z,95685.84
2023-03-05T09:55:57.639Z,95679.81
2023-03-05T09:58:40.981Z,95675.31
2023-03-05T10:01:13.951Z,95677.03
2023-03-05T10:03:58.084Z,95666.91
2023-03-05T10:07:00.038Z,95668.44
2023-03-05T10:09:45.450Z,95669.31
2023-03-05T10:12:44.663Z,95660.53
2023-03-05T10:15:56.304Z,95660.63
2023-03-05T10:18:46.418Z,95666.59
2023-03-05T10:21:13.019Z,95655.25
2023-03-05T10:23:58.753Z,95651.66
2023-03-05T10:26:47.191Z,95647.34
2023-03-05T10:29:23.230Z,95640.50
2023-03-05T10:32:00.826Z,95645.47
2023-03-05T10:34:31.413Z,95631.63
2023-03-05T10:37:39.288Z,95636.16
2023-03-05T10:40:11.813Z,95630.81
2023-03-05T10:42:44.416Z,95630.66
2023-03-05T10:45:36.840Z,95627.53
2023-03-05T10:48:06.505Z,95626.50
2023-03-05T10:50:47.086Z,95621.91
2023-03-05T10:53:34.897Z,95623.59
2023-03-05T10:56:05.589Z,95626.19
2023-03-05T10:58:33.152Z,95615.28
2023-03-05T11:00:59.722Z,95609.09
2023-03-05T11:03:26.385Z,95610.59
2023-03-05T11:06:01.919Z,95611.78
2023-03-05T11:08:35.731Z,95607.31
2023-03-05T11:11:15.432Z,95613.97
2023-03-05T11:13:48.401Z,95600.75
2023-03-05T11:16:21.086Z,95597.50
2023-03-05T11:18:47.906Z,95595.78
2023-03-05T11:21:29.166Z,95590.53
2023-03-05T11:24:24.853Z,95591.75
2023-03-05T11:26:54.266Z,95579.75
2023-03-05T11:29:20.803Z,95578.91
2023-03-05T11:31:47.538Z,95586.75
2023-03-05T11:34:17.179Z,95573.28
2023-03-05T11:37:06.228Z,95578.34
2023-03-05T11:39:36.684Z,95561.50
2023-03-05T11:42:13.722Z,95563.88
2023-03-05T11:44:48.216Z,95553.41
2023-03-05T11:47:44.456Z,95549.91
2023-03-05T11:50:22.591Z,95545.38
2023-03-05T11:52:51.266Z,95545.41
2023-03-05T11:55:19.512Z,95532.56
2023-03-05T11:58:11.444Z,95539.31
2023-03-05T12:00:41.526Z,95536.69
2023-03-05T12:03:13.849Z,95529.78
2023-03-05T12:05:45.728Z,95530.78
2023-03-05T12:08:21.365Z,95530.13
2023-03-05T12:10:47.956Z,95522.44
2023-03-05T12:13:36.577Z,95513.78
2023-03-05T12:16:24.324Z,95516.94
2023-03-05T12:19:19.569Z,95507.97
2023-03-05T12:21:50.808Z,95509.66
2023-03-05T12:24:24.767Z,95504.53
2023-03-05T12:27:04.772Z,95501.06
2023-03-05T12:29:37.315Z,95507.69
2023-03-05T12:32:05.407Z,95498.31
2023-03-05T12:34:40.947Z,95496.59
2023-03-05T12:37:23.270Z,95495.38
2023-03-05T12:40:23.759Z,95491.41
2023-03-05T12:42:56.039Z,95488.09
2023-03-05T12:45:36.808Z,95478.03
2023-03-05T12:48:03.547Z,95477.28
2023-03-05T12:50:30.025Z,95474.88
2023-03-05T12:53:04.083Z,95460.59
2023-03-05T12:55:57.933Z,95462.22
2023-03-05T12:58:45.876Z,95462.81
2023-03-05T13:01:29.935Z,95458.88
2023-03-05T13:04:00.189Z,95457.22
2023-03-05T13:06:37.898Z,95448.22
2023-03-05T13:09:15.784Z,95452.19
2023-03-05T13:11:44.742Z,95439.06
2023-03-05T13:14:32.892Z,95443.03
2023-03-05T13:17:00.416Z,95439.31
2023-03-05T13:19:28.277Z,95436.41
2023-03-05T13:22:00.363Z,95442.53
2023-03-05T13:24:27.697Z,95435.34
2023-03-05T13:26:54.516Z,95435.91
2023-03-05T13:29:30.640Z,95429.13
2023-03-05T13:32:00.662Z,95422.22
2023-03-05T13:34:46.137Z,95427.09
2023-03-05T13:37:18.500Z,95423.75
2023-03-05T13:39:58.726Z,95421.97
2023-03-05T13:42:34.707Z,95414.19
2023-03-05T13:45:01.394Z,95422.81
2023-03-05T13:47:31.877Z,95416.72
2023-03-05T13:50:19.915Z,95417.97
2023-03-05T13:52:46.481Z,95420.13
2023-03-05T13:55:16.849Z,95413.63
2023-03-05T13:57:45.143Z,95417.00
2023-03-05T14:00:38.867Z,95407.41
2023-03-05T14:03:20.634Z,95408.28
2023-03-05T14:05:49.863Z,95409.06
2023-03-05T14:08:22.864Z,95407.53
2023-03-05T14:10:50.568Z,95397.09
2023-03-05T14:13:20.710Z,95404.56
2023-03-05T14:16:04.723Z,95394.03
2023-03-05T14:18:31.550Z,95390.47
2023-03-05T14:21:01.524Z,95394.28
2023-03-05T14:23:48.195Z,95382.34
2023-03-05T14:26:34.878Z,95385.06
2023-03-05T14:29:09.111Z,95390.06
2023-03-05T14:31:45.680Z,95379.34
2023-03-05T14:34:20.618Z,95385.88
2023-03-05T14:36:49.832Z,95377.91
2023-03-05T14:39:28.050Z,95377.03
2023-03-05T14:41:54.628Z,95371.81
2023-03-05T14:44:25.279Z,95367.91
2023-03-05T14:46:52.086Z,95367.47
2023-03-05T14:49:18.724Z,95369.22
2023-03-05T14:51:46.931Z,95362.13
2023-03-05T14:54:23.224Z,95363.00
2023-03-05T14:56:50.368Z,95361.59
2023-03-05T14:59:18.381Z,95357.25
2023-03-05T15:01:45.141Z,95348.66
2023-03-05T15:04:11.761Z,95350.91
2023-03-05T15:06:41.050Z,95347.81
2023-03-05T15:09:08.096Z,95350.50
2023-03-05T15:11:35.057Z,95343.31
2023-03-05T15:14:01.714Z,95333.72
2023-03-05T15:16:28.580Z,95336.72
2023-03-05T15:18:55.396Z,95332.25
2023-03-05T15:21:22.005Z,95339.59
2023-03-05T15:23:48.629Z,95332.91
2023-03-05T15:26:15.527Z,95333.41
2023-03-05T15:28:43.248Z,95329.22
2023-03-05T15:31:10.871Z,95331.97
2023-03-05T15:33:37.909Z,95328.50
2023-03-05T15:36:04.932Z,95323.66
2023-03-05T15:38:31.557Z,95319.41
2023-03-05T15:41:00.551Z,95317.22
2023-03-05T15:43:28.382Z,95313.00
2023-03-05T15:45:55.040Z,95306.19
2023-03-05T15:48:21.713Z,95304.22
2023-03-05T15:50:48.324Z,95297.56
2023-03-05T15:53:17.974Z,95293.84
2023-03-05T15:55:45.841Z,95290.25
2023-03-05T15:58:16.648Z,95284.41
2023-03-05T16:00:44.262Z,95285.47
2023-03-05T16:03:11.202Z,95293.97
2023-03-05T16:05:38.241Z,95290.63
2023-03-05T16:08:05.642Z,95287.56
2023-03-05T16:10:32.664Z,95287.28
2023-03-05T16:13:04.097Z,95286.69
2023-03-05T16:15:33.080Z,95281.44
2023-03-05T16:18:04.122Z,95282.34
2023-03-05T16:20:30.791Z,95284.66
2023-03-05T16:22:57.452Z,95281.22
2023-03-05T16:25:24.040Z,95282.63
2023-03-05T16:27:50.637Z,95282.09
2023-03-05T16:30:17.769Z,95279.94
2023-03-05T16:32:44.460Z,95276.53
2023-03-05T16:35:12.360Z,95272.75
2023-03-05T16:37:41.847Z,95272.16
2023-03-05T16:40:11.530Z,95268.81
2023-03-05T16:42:38.089Z,95268.94
2023-03-05T16:45:06.339Z,95252.50
2023-03-05T16:47:33.223Z,95255.03
2023-03-05T16:50:00.854Z,95255.25
2023-03-05T16:52:28.967Z,95252.75
2023-03-05T16:54:55.670Z,95247.44
2023-03-05T16:57:23.986Z,95250.19
2023-03-05T16:59:51.382Z,95253.41
2023-03-05T17:02:18.549Z,95247.25
2023-03-05T17:04:46.158Z,95246.38
2023-03-05T17:07:12.866Z,95246.84
2023-03-05T17:09:39.689Z,95246.75
2023-03-05T17:12:06.605Z,95238.06
2023-03-05T17:14:33.274Z,95245.97
2023-03-05T17:17:01.225Z,95235.84
2023-03-05T17:19:28.133Z,95240.78
2023-03-05T17:21:54.787Z,95238.78
2023-03-05T17:24:22.355Z,95242.53
2023-03-05T17:26:49.776Z,95233.19
2023-03-05T17:29:19.638Z,95241.88
2023-03-05T17:31:46.746Z,95243.41
2023-03-05T17:34:13.513Z,95243.13
2023-03-05T17:36:40.138Z,95242.38
2023-03-05T17:39:06.878Z,95240.72
2023-03-05T17:41:33.657Z,95241.03
2023-03-05T17:44:00.198Z,95237.16
2023-03-05T17:46:26.783Z,95242.75
2023-03-05T17:48:53.347Z,95238.84
2023-03-05T17:51:19.899Z,95244.09
2023-03-05T17:53:46.472Z,95240.13
2023-03-05T17:56:14.586Z,95239.38
2023-03-05T17:58:41.484Z,95242.66
2023-03-05T18:01:08.191Z,95234.28
2023-03-05T18:03:35.743Z,95233.19
2023-03-05T18:06:03.705Z,95228.84
2023-03-05T18:08:30.617Z,95230.72
2023-03-05T18:10:57.231Z,95227.03
2023-03-05T18:13:23.829Z,95229.44
2023-03-05T18:15:50.380Z,95226.47
2023-03-05T18:18:18.464Z,95228.41
2023-03-05T18:20:46.021Z,95220.00
2023-03-05T18:23:12.707Z,95221.84
2023-03-05T18:25:39.586Z,95228.34
2023-03-05T18:28:09.067Z,95222.44
2023-03-05T18:30:36.030Z,95221.97
2023-03-05T18:33:03.700Z,95223.63
2023-03-05T18:35:30.749Z,95216.69
2023-03-05T18:37:57.556Z,95220.81
2023-03-05T18:40:26.459Z,95216.53
2023-03-05T18:42:53.457Z,95215.88
2023-03-05T18:45:21.525Z,95218.72
2023-03-05T18:47:49.017Z,95214.66
2023-03-05T18:50:18.447Z,95216.28
2023-03-05T18:52:45.679Z,95218.72
2023-03-05T18:55:17.795Z,95208.94
2023-03-05T18:57:44.681Z,95210.81
2023-03-05T19:00:22.565Z,95220.78
2023-03-05T19:02:49.278Z,95225.00
2023-03-05T19:05:16.969Z,95223.88
2023-03-05T19:07:43.785Z,95222.53
2023-03-05T19:10:12.251Z,95221.53
2023-03-05T19:12:49.210Z,95224.78
2023-03-05T19:15:17.212Z,95220.69
2023-03-05T19:17:43.894Z,95221.66
2023-03-05T19:20:12.456Z,95218.91
2023-03-05T19:22:39.820Z,95211.34
2023-03-05T19:25:07.361Z,95216.72
2023-03-05T19:27:34.741Z,95213.72
2023-03-05T19:30:01.524Z,95214.47
2023-03-05T19:32:28.257Z,95204.66
2023-03-05T19:34:56.785Z,95206.63
2023-03-05T19:37:23.818Z,95191.84
2023-03-05T19:39:50.423Z,95195.53
2023-03-05T19:42:17.089Z,95186.00
2023-03-05T19:44:43.614Z,95189.69
2023-03-05T19:47:10.227Z,95190.78
2023-03-05T19:49:36.855Z,95196.09
2023-03-05T19:52:04.214Z,95190.13
2023-03-05T19:54:30.996Z,95188.25
2023-03-05T19:56:58.896Z,95188.59
2023-03-05T19:59:25.973Z,95182.25
2023-03-05T20:01:52.642Z,95179.63
2023-03-05T20:04:21.889Z,95177.19
2023-03-05T20:06:48.899Z,95173.47
2023-03-05T20:09:16.285Z,95183.38
2023-03-05T20:11:43.603Z,95184.50
2023-03-05T20:14:10.404Z,95183.69
2023-03-05T20:16:37.786Z,95181.47
2023-03-05T20:19:06.336Z,95183.34
2023-03-05T20:21:36.159Z,95170.72
2023-03-05T20:24:07.802Z,95167.56
2023-03-05T20:26:37.295Z,95164.47
2023-03-05T20:29:04.833Z,95177.44
2023-03-05T20:31:33.903Z,95163.63
2023-03-05T20:34:00.547Z,95155.13
2023-03-05T20:36:27.213Z,95162.13
2023-03-05T20:38:53.896Z,95158.38
2023-03-05T20:41:23.643Z,95158.69
2023-03-05T20:43:51.101Z,95158.66
2023-03-05T20:46:19.078Z,95151.75
2023-03-05T20:48:48.027Z,95156.09
2023-03-05T20:51:30.628Z,95150.06
2023-03-05T20:54:02.453Z,95152.50
2023-03-05T20:56:32.258Z,95150.81
2023-03-05T20:59:04.928Z,95154.38
2023-03-05T21:01:34.146Z,95145.81
2023-03-05T21:04:01.390Z,95143.22
2023-03-05T21:06:29.819Z,95139.41
2023-03-05T21:08:57.150Z,95133.59
2023-03-05T21:11:24.409Z,95129.13
2023-03-05T21:13:51.005Z,95132.47
2023-03-05T21:16:20.701Z,95132.50
2023-03-05T21:18:48.053Z,95130.22
2023-03-05T21:21:15.022Z,95123.41
2023-03-05T21:23:41.574Z,95112.06
2023-03-05T21:26:08.583Z,95114.81
2023-03-05T21:28:35.195Z,95125.22
2023-03-05T21:31:11.159Z,95115.63
2023-03-05T21:33:38.585Z,95112.63
2023-03-05T21:36:05.371Z,95111.81
2023-03-05T21:38:33.936Z,95110.06
2023-03-05T21:41:01.085Z,95102.84
2023-03-05T21:43:27.833Z,95108.06
2023-03-05T21:45:54.857Z,95102.28
2023-03-05T21:48:22.276Z,95105.75
2023-03-05T21:50:49.887Z,95096.16
2023-03-05T21:53:17.904Z,95090.03
2023-03-05T21:56:03.122Z,95087.34
2023-03-05T21:58:34.638Z,95093.34
2023-03-05T22:01:01.696Z,95084.88
2023-03-05T22:03:29.414Z,95087.44
2023-03-05T22:05:56.897Z,95079.84
2023-03-05T22:08:24.449Z,95082.38
2023-03-05T22:10:51.652Z,95073.69
2023-03-05T22:13:20.017Z,95077.31
2023-03-05T22:15:55.463Z,95069.19
2023-03-05T22:18:27.625Z,95069.53
2023-03-05T22:20:55.761Z,95076.53
2023-03-05T22:23:23.981Z,95053.97
2023-03-05T22:25:56.553Z,95057.13
2023-03-05T22:28:23.214Z,95055.06
2023-03-05T22:30:49.781Z,95055.38
2023-03-05T22:33:16.414Z,95057.47
2023-03-05T22:35:43.246Z,95054.06
2023-03-05T22:38:10.744Z,95049.72
2023-03-05T22:40:41.536Z,95050.97
2023-03-05T22:43:08.197Z,95040.69
2023-03-05T22:45:34.739Z,95049.72
2023-03-05T22:48:01.294Z,95042.97
2023-03-05T22:50:28.333Z,95048.59
2023-03-05T22:52:55.325Z,95041.56
2023-03-05T22:55:22.277Z,95045.19
2023-03-05T22:57:48.904Z,95039.75
2023-03-05T23:00:21.382Z,95039.69
2023-03-05T23:02:48.163Z,95028.56
2023-03-05T23:05:14.749Z,95024.91
2023-03-05T23:07:42.869Z,95026.16
2023-03-05T23:10:17.185Z,95029.44
2023-03-05T23:12:49.223Z,95017.50
2023-03-05T23:15:21.917Z,95014.69
2023-03-05T23:17:48.476Z,95014.03
2023-03-05T23:20:16.906Z,95018.66
2023-03-05T23:22:45.070Z,95010.22
2023-03-05T23:25:14.019Z,95005.81
2023-03-05T23:27:41.351Z,95003.38
2023-03-05T23:30:17.305Z,95001.03
2023-03-05T23:32:58.362Z,94999.31
2023-03-05T23:35:27.836Z,95001.28
2023-03-05T23:37:56.181Z,94999.44
2023-03-05T23:40:25.376Z,94995.34
2023-03-05T23:42:52.681Z,94993.91
2023-03-05T23:45:20.907Z,94986.38
2023-03-05T23:47:48.398Z,94991.88
2023-03-05T23:50:18.253Z,94988.84
2023-03-05T23:52:45.427Z,94984.38
2023-03-05T23:55:18.859Z,94982.16
2023-03-05T23:57:45.896Z,94979.16
